sensor_id;sensor_type;location;lat;lon;timestamp;P1;durP1;ratioP1;P2;durP2;ratioP2
68987;SDS011;56038;46.080;11.116;2023-07-29T00:03:18;1.65;;;1.42;;
68987;SDS011;56038;46.080;11.116;2023-07-29T00:08:20;1.40;;;1.30;;
68987;SDS011;56038;46.080;11.116;2023-07-29T00:13:23;1.13;;;1.02;;
68987;SDS011;56038;46.080;11.116;2023-07-29T00:18:25;1.30;;;1.20;;
68987;SDS011;56038;46.080;11.116;2023-07-29T00:23:28;2.20;;;1.55;;
68987;SDS011;56038;46.080;11.116;2023-07-29T00:28:32;1.33;;;1.23;;
68987;SDS011;56038;46.080;11.116;2023-07-29T00:33:34;1.40;;;1.30;;
68987;SDS011;56038;46.080;11.116;2023-07-29T00:38:36;1.58;;;1.40;;
68987;SDS011;56038;46.080;11.116;2023-07-29T00:43:39;1.40;;;1.30;;
68987;SDS011;56038;46.080;11.116;2023-07-29T00:48:41;1.73;;;1.30;;
68987;SDS011;56038;46.080;11.116;2023-07-29T00:53:43;3.15;;;1.33;;
68987;SDS011;56038;46.080;11.116;2023-07-29T00:58:46;1.48;;;1.15;;
68987;SDS011;56038;46.080;11.116;2023-07-29T01:03:48;1.40;;;1.30;;
68987;SDS011;56038;46.080;11.116;2023-07-29T01:08:51;1.17;;;1.08;;
68987;SDS011;56038;46.080;11.116;2023-07-29T01:14:01;1.45;;;1.35;;
68987;SDS011;56038;46.080;11.116;2023-07-29T01:19:08;1.20;;;1.10;;
68987;SDS011;56038;46.080;11.116;2023-07-29T01:24:22;1.30;;;1.20;;
68987;SDS011;56038;46.080;11.116;2023-07-29T01:29:24;1.52;;;1.08;;
68987;SDS011;56038;46.080;11.116;2023-07-29T01:34:28;1.35;;;0.95;;
68987;SDS011;56038;46.080;11.116;2023-07-29T01:39:35;1.00;;;0.90;;
68987;SDS011;56038;46.080;11.116;2023-07-29T01:44:39;0.90;;;0.90;;
68987;SDS011;56038;46.080;11.116;2023-07-29T01:49:42;1.30;;;1.10;;
68987;SDS011;56038;46.080;11.116;2023-07-29T01:54:45;1.20;;;1.10;;
68987;SDS011;56038;46.080;11.116;2023-07-29T01:59:47;1.90;;;1.25;;
68987;SDS011;56038;46.080;11.116;2023-07-29T02:04:49;1.15;;;0.80;;
68987;SDS011;56038;46.080;11.116;2023-07-29T02:09:54;2.47;;;1.15;;
68987;SDS011;56038;46.080;11.116;2023-07-29T02:14:55;1.25;;;1.05;;
68987;SDS011;56038;46.080;11.116;2023-07-29T02:19:57;1.13;;;1.00;;
68987;SDS011;56038;46.080;11.116;2023-07-29T02:25:00;1.00;;;0.90;;
68987;SDS011;56038;46.080;11.116;2023-07-29T02:30:03;1.10;;;0.95;;
68987;SDS011;56038;46.080;11.116;2023-07-29T02:35:05;1.88;;;0.95;;
68987;SDS011;56038;46.080;11.116;2023-07-29T02:40:10;1.10;;;1.00;;
68987;SDS011;56038;46.080;11.116;2023-07-29T02:50:14;1.63;;;1.02;;
68987;SDS011;56038;46.080;11.116;2023-07-29T02:55:18;1.67;;;0.90;;
68987;SDS011;56038;46.080;11.116;2023-07-29T03:00:20;1.27;;;1.00;;
68987;SDS011;56038;46.080;11.116;2023-07-29T03:05:21;0.80;;;0.80;;
68987;SDS011;56038;46.080;11.116;2023-07-29T03:10:25;0.90;;;0.90;;
68987;SDS011;56038;46.080;11.116;2023-07-29T03:15:26;1.40;;;0.80;;
68987;SDS011;56038;46.080;11.116;2023-07-29T03:20:28;1.38;;;1.27;;
68987;SDS011;56038;46.080;11.116;2023-07-29T03:25:32;1.23;;;1.00;;
68987;SDS011;56038;46.080;11.116;2023-07-29T03:30:34;1.67;;;1.13;;
68987;SDS011;56038;46.080;11.116;2023-07-29T03:35:36;0.90;;;0.90;;
68987;SDS011;56038;46.080;11.116;2023-07-29T03:40:39;1.13;;;0.88;;
68987;SDS011;56038;46.080;11.116;2023-07-29T03:45:42;1.17;;;0.80;;
68987;SDS011;56038;46.080;11.116;2023-07-29T03:50:44;1.20;;;1.10;;
68987;SDS011;56038;46.080;11.116;2023-07-29T03:55:47;1.15;;;0.70;;
68987;SDS011;56038;46.080;11.116;2023-07-29T04:00:50;0.80;;;0.80;;
68987;SDS011;56038;46.080;11.116;2023-07-29T04:05:53;2.15;;;0.85;;
68987;SDS011;56038;46.080;11.116;2023-07-29T04:11:01;1.08;;;0.98;;
68987;SDS011;56038;46.080;11.116;2023-07-29T04:16:03;0.88;;;0.88;;
68987;SDS011;56038;46.080;11.116;2023-07-29T04:21:05;0.85;;;0.85;;
68987;SDS011;56038;46.080;11.116;2023-07-29T04:26:08;2.63;;;0.98;;
68987;SDS011;56038;46.080;11.116;2023-07-29T04:31:10;0.77;;;0.77;;
68987;SDS011;56038;46.080;11.116;2023-07-29T04:36:12;0.93;;;0.90;;
68987;SDS011;56038;46.080;11.116;2023-07-29T04:41:15;0.95;;;0.70;;
68987;SDS011;56038;46.080;11.116;2023-07-29T04:46:17;1.05;;;0.95;;
68987;SDS011;56038;46.080;11.116;2023-07-29T04:51:19;1.05;;;1.00;;
68987;SDS011;56038;46.080;11.116;2023-07-29T04:56:22;1.02;;;0.93;;
68987;SDS011;56038;46.080;11.116;2023-07-29T05:01:24;1.27;;;1.10;;
68987;SDS011;56038;46.080;11.116;2023-07-29T05:06:26;1.17;;;1.08;;
68987;SDS011;56038;46.080;11.116;2023-07-29T05:11:29;1.83;;;1.10;;
68987;SDS011;56038;46.080;11.116;2023-07-29T05:16:31;1.02;;;1.00;;
68987;SDS011;56038;46.080;11.116;2023-07-29T05:21:33;1.10;;;1.00;;
68987;SDS011;56038;46.080;11.116;2023-07-29T05:26:36;1.30;;;1.10;;
68987;SDS011;56038;46.080;11.116;2023-07-29T05:31:39;1.00;;;0.90;;
68987;SDS011;56038;46.080;11.116;2023-07-29T05:36:40;1.02;;;0.90;;
68987;SDS011;56038;46.080;11.116;2023-07-29T05:41:43;1.15;;;1.05;;
68987;SDS011;56038;46.080;11.116;2023-07-29T05:46:46;1.10;;;1.00;;
68987;SDS011;56038;46.080;11.116;2023-07-29T05:51:47;1.00;;;0.90;;
68987;SDS011;56038;46.080;11.116;2023-07-29T05:56:51;0.82;;;0.80;;
68987;SDS011;56038;46.080;11.116;2023-07-29T06:01:53;1.20;;;1.10;;
68987;SDS011;56038;46.080;11.116;2023-07-29T06:06:55;1.08;;;1.00;;
68987;SDS011;56038;46.080;11.116;2023-07-29T06:11:58;2.67;;;1.20;;
68987;SDS011;56038;46.080;11.116;2023-07-29T06:17:00;0.90;;;0.90;;
68987;SDS011;56038;46.080;11.116;2023-07-29T06:22:02;2.90;;;1.75;;
68987;SDS011;56038;46.080;11.116;2023-07-29T06:27:06;1.40;;;1.30;;
68987;SDS011;56038;46.080;11.116;2023-07-29T06:32:08;1.27;;;1.13;;
68987;SDS011;56038;46.080;11.116;2023-07-29T06:37:10;1.10;;;1.00;;
68987;SDS011;56038;46.080;11.116;2023-07-29T06:42:13;1.15;;;1.00;;
68987;SDS011;56038;46.080;11.116;2023-07-29T06:47:15;1.40;;;1.10;;
68987;SDS011;56038;46.080;11.116;2023-07-29T06:52:17;1.30;;;0.95;;
68987;SDS011;56038;46.080;11.116;2023-07-29T06:57:20;1.40;;;0.85;;
68987;SDS011;56038;46.080;11.116;2023-07-29T07:02:22;0.93;;;0.93;;
68987;SDS011;56038;46.080;11.116;2023-07-29T07:07:24;2.58;;;1.40;;
68987;SDS011;56038;46.080;11.116;2023-07-29T07:12:27;1.02;;;0.90;;
68987;SDS011;56038;46.080;11.116;2023-07-29T07:17:29;1.65;;;1.23;;
68987;SDS011;56038;46.080;11.116;2023-07-29T07:22:31;0.73;;;0.70;;
68987;SDS011;56038;46.080;11.116;2023-07-29T07:27:34;1.27;;;0.90;;
68987;SDS011;56038;46.080;11.116;2023-07-29T07:32:36;3.13;;;0.90;;
68987;SDS011;56038;46.080;11.116;2023-07-29T07:37:38;1.05;;;0.80;;
68987;SDS011;56038;46.080;11.116;2023-07-29T07:42:41;1.17;;;0.90;;
68987;SDS011;56038;46.080;11.116;2023-07-29T07:47:43;1.65;;;0.90;;
68987;SDS011;56038;46.080;11.116;2023-07-29T07:52:45;0.80;;;0.80;;
68987;SDS011;56038;46.080;11.116;2023-07-29T07:57:48;0.80;;;0.80;;
68987;SDS011;56038;46.080;11.116;2023-07-29T08:02:50;1.65;;;1.55;;
68987;SDS011;56038;46.080;11.116;2023-07-29T08:07:52;0.90;;;0.80;;
68987;SDS011;56038;46.080;11.116;2023-07-29T08:12:55;1.20;;;1.10;;
68987;SDS011;56038;46.080;11.116;2023-07-29T08:17:57;1.45;;;0.90;;
68987;SDS011;56038;46.080;11.116;2023-07-29T08:22:59;1.52;;;0.70;;
68987;SDS011;56038;46.080;11.116;2023-07-29T08:28:02;2.00;;;0.88;;
68987;SDS011;56038;46.080;11.116;2023-07-29T08:33:05;1.27;;;0.82;;
68987;SDS011;56038;46.080;11.116;2023-07-29T08:38:07;1.17;;;1.08;;
68987;SDS011;56038;46.080;11.116;2023-07-29T08:43:10;0.77;;;0.77;;
68987;SDS011;56038;46.080;11.116;2023-07-29T08:48:13;1.23;;;1.13;;
68987;SDS011;56038;46.080;11.116;2023-07-29T08:53:20;1.00;;;0.90;;
68987;SDS011;56038;46.080;11.116;2023-07-29T08:58:24;1.00;;;1.00;;
68987;SDS011;56038;46.080;11.116;2023-07-29T09:03:26;1.10;;;1.00;;
68987;SDS011;56038;46.080;11.116;2023-07-29T09:08:28;1.30;;;0.95;;
68987;SDS011;56038;46.080;11.116;2023-07-29T09:13:32;0.93;;;0.93;;
68987;SDS011;56038;46.080;11.116;2023-07-29T09:18:33;0.95;;;0.88;;
68987;SDS011;56038;46.080;11.116;2023-07-29T09:23:38;1.38;;;1.02;;
68987;SDS011;56038;46.080;11.116;2023-07-29T09:28:44;1.98;;;0.90;;
68987;SDS011;56038;46.080;11.116;2023-07-29T09:33:55;2.03;;;1.30;;
68987;SDS011;56038;46.080;11.116;2023-07-29T09:38:58;0.90;;;0.90;;
68987;SDS011;56038;46.080;11.116;2023-07-29T09:44:03;0.90;;;0.88;;
68987;SDS011;56038;46.080;11.116;2023-07-29T09:49:07;1.40;;;1.30;;
68987;SDS011;56038;46.080;11.116;2023-07-29T09:54:09;2.13;;;1.20;;
68987;SDS011;56038;46.080;11.116;2023-07-29T09:59:15;1.45;;;1.23;;
68987;SDS011;56038;46.080;11.116;2023-07-29T10:04:20;1.58;;;1.48;;
68987;SDS011;56038;46.080;11.116;2023-07-29T10:09:23;1.27;;;1.02;;
68987;SDS011;56038;46.080;11.116;2023-07-29T10:14:27;2.28;;;1.40;;
68987;SDS011;56038;46.080;11.116;2023-07-29T10:19:29;1.55;;;1.45;;
68987;SDS011;56038;46.080;11.116;2023-07-29T10:24:32;2.38;;;1.30;;
68987;SDS011;56038;46.080;11.116;2023-07-29T10:29:37;1.20;;;1.10;;
68987;SDS011;56038;46.080;11.116;2023-07-29T10:34:40;2.00;;;1.80;;
68987;SDS011;56038;46.080;11.116;2023-07-29T10:39:52;1.90;;;1.70;;
68987;SDS011;56038;46.080;11.116;2023-07-29T10:44:56;3.85;;;1.83;;
68987;SDS011;56038;46.080;11.116;2023-07-29T10:49:58;1.80;;;1.70;;
68987;SDS011;56038;46.080;11.116;2023-07-29T10:55:01;1.80;;;1.70;;
68987;SDS011;56038;46.080;11.116;2023-07-29T11:00:05;2.00;;;1.70;;
68987;SDS011;56038;46.080;11.116;2023-07-29T11:05:16;2.28;;;1.90;;
68987;SDS011;56038;46.080;11.116;2023-07-29T11:10:19;2.05;;;1.65;;
68987;SDS011;56038;46.080;11.116;2023-07-29T11:15:24;1.60;;;1.50;;
68987;SDS011;56038;46.080;11.116;2023-07-29T11:20:27;3.83;;;2.35;;
68987;SDS011;56038;46.080;11.116;2023-07-29T11:25:30;2.05;;;1.90;;
68987;SDS011;56038;46.080;11.116;2023-07-29T11:30:36;1.85;;;1.60;;
68987;SDS011;56038;46.080;11.116;2023-07-29T11:35:41;2.42;;;2.00;;
68987;SDS011;56038;46.080;11.116;2023-07-29T11:40:43;2.30;;;1.60;;
68987;SDS011;56038;46.080;11.116;2023-07-29T11:45:46;2.03;;;1.65;;
68987;SDS011;56038;46.080;11.116;2023-07-29T11:50:48;2.00;;;1.83;;
68987;SDS011;56038;46.080;11.116;2023-07-29T11:55:51;2.55;;;1.52;;
68987;SDS011;56038;46.080;11.116;2023-07-29T12:05:57;2.63;;;2.20;;
68987;SDS011;56038;46.080;11.116;2023-07-29T12:10:59;2.20;;;2.00;;
68987;SDS011;56038;46.080;11.116;2023-07-29T12:16:02;2.40;;;2.20;;
68987;SDS011;56038;46.080;11.116;2023-07-29T12:21:05;2.50;;;2.05;;
68987;SDS011;56038;46.080;11.116;2023-07-29T12:26:07;2.33;;;2.05;;
68987;SDS011;56038;46.080;11.116;2023-07-29T12:31:10;1.95;;;1.85;;
68987;SDS011;56038;46.080;11.116;2023-07-29T12:36:11;3.45;;;2.10;;
68987;SDS011;56038;46.080;11.116;2023-07-29T12:41:14;1.88;;;1.77;;
68987;SDS011;56038;46.080;11.116;2023-07-29T12:46:17;2.42;;;2.08;;
68987;SDS011;56038;46.080;11.116;2023-07-29T12:56:21;2.15;;;1.92;;
68987;SDS011;56038;46.080;11.116;2023-07-29T13:01:24;2.45;;;2.25;;
68987;SDS011;56038;46.080;11.116;2023-07-29T13:06:27;2.70;;;2.50;;
68987;SDS011;56038;46.080;11.116;2023-07-29T13:11:28;3.05;;;2.72;;
68987;SDS011;56038;46.080;11.116;2023-07-29T13:16:33;3.78;;;3.10;;
68987;SDS011;56038;46.080;11.116;2023-07-29T13:21:36;3.60;;;2.90;;
68987;SDS011;56038;46.080;11.116;2023-07-29T13:26:37;4.45;;;3.00;;
68987;SDS011;56038;46.080;11.116;2023-07-29T13:31:41;5.93;;;3.20;;
68987;SDS011;56038;46.080;11.116;2023-07-29T13:36:43;3.20;;;2.90;;
68987;SDS011;56038;46.080;11.116;2023-07-29T13:41:44;4.00;;;2.80;;
68987;SDS011;56038;46.080;11.116;2023-07-29T13:46:48;4.75;;;3.50;;
68987;SDS011;56038;46.080;11.116;2023-07-29T13:51:50;6.28;;;3.40;;
68987;SDS011;56038;46.080;11.116;2023-07-29T13:56:51;4.60;;;3.17;;
68987;SDS011;56038;46.080;11.116;2023-07-29T14:01:55;5.05;;;3.97;;
68987;SDS011;56038;46.080;11.116;2023-07-29T14:06:57;5.60;;;2.90;;
68987;SDS011;56038;46.080;11.116;2023-07-29T14:11:59;3.67;;;3.13;;
68987;SDS011;56038;46.080;11.116;2023-07-29T14:17:02;5.78;;;3.10;;
68987;SDS011;56038;46.080;11.116;2023-07-29T14:22:04;3.40;;;3.10;;
68987;SDS011;56038;46.080;11.116;2023-07-29T14:27:07;4.72;;;3.20;;
68987;SDS011;56038;46.080;11.116;2023-07-29T14:32:10;3.72;;;3.38;;
68987;SDS011;56038;46.080;11.116;2023-07-29T14:37:12;3.00;;;2.70;;
68987;SDS011;56038;46.080;11.116;2023-07-29T14:42:13;3.83;;;3.08;;
68987;SDS011;56038;46.080;11.116;2023-07-29T14:47:17;3.13;;;2.80;;
68987;SDS011;56038;46.080;11.116;2023-07-29T14:52:19;3.90;;;2.72;;
68987;SDS011;56038;46.080;11.116;2023-07-29T14:57:21;3.13;;;2.78;;
68987;SDS011;56038;46.080;11.116;2023-07-29T15:02:24;5.65;;;2.83;;
68987;SDS011;56038;46.080;11.116;2023-07-29T15:07:26;4.03;;;2.55;;
68987;SDS011;56038;46.080;11.116;2023-07-29T15:12:28;3.10;;;2.90;;
68987;SDS011;56038;46.080;11.116;2023-07-29T15:17:31;5.60;;;3.15;;
68987;SDS011;56038;46.080;11.116;2023-07-29T15:22:33;2.78;;;2.58;;
68987;SDS011;56038;46.080;11.116;2023-07-29T15:27:35;2.72;;;2.53;;
68987;SDS011;56038;46.080;11.116;2023-07-29T15:32:38;4.50;;;2.97;;
68987;SDS011;56038;46.080;11.116;2023-07-29T15:37:42;4.80;;;3.72;;
68987;SDS011;56038;46.080;11.116;2023-07-29T15:42:46;5.05;;;3.50;;
68987;SDS011;56038;46.080;11.116;2023-07-29T15:47:49;2.92;;;2.72;;
68987;SDS011;56038;46.080;11.116;2023-07-29T15:52:51;3.30;;;2.77;;
68987;SDS011;56038;46.080;11.116;2023-07-29T15:57:54;4.32;;;2.78;;
68987;SDS011;56038;46.080;11.116;2023-07-29T16:02:57;5.80;;;3.42;;
68987;SDS011;56038;46.080;11.116;2023-07-29T16:07:59;2.70;;;2.50;;
68987;SDS011;56038;46.080;11.116;2023-07-29T16:13:01;3.35;;;2.55;;
68987;SDS011;56038;46.080;11.116;2023-07-29T16:18:07;4.40;;;3.00;;
68987;SDS011;56038;46.080;11.116;2023-07-29T16:23:08;5.00;;;2.90;;
68987;SDS011;56038;46.080;11.116;2023-07-29T16:28:10;5.30;;;2.42;;
68987;SDS011;56038;46.080;11.116;2023-07-29T16:33:14;2.70;;;2.30;;
68987;SDS011;56038;46.080;11.116;2023-07-29T16:38:16;4.47;;;2.60;;
68987;SDS011;56038;46.080;11.116;2023-07-29T16:43:17;3.05;;;2.75;;
68987;SDS011;56038;46.080;11.116;2023-07-29T16:48:21;4.10;;;2.92;;
68987;SDS011;56038;46.080;11.116;2023-07-29T16:53:24;2.85;;;2.60;;
68987;SDS011;56038;46.080;11.116;2023-07-29T16:58:26;4.43;;;2.60;;
68987;SDS011;56038;46.080;11.116;2023-07-29T17:03:30;3.17;;;2.85;;
68987;SDS011;56038;46.080;11.116;2023-07-29T17:08:31;2.63;;;2.38;;
68987;SDS011;56038;46.080;11.116;2023-07-29T17:13:33;3.50;;;2.63;;
68987;SDS011;56038;46.080;11.116;2023-07-29T17:18:37;6.00;;;2.92;;
68987;SDS011;56038;46.080;11.116;2023-07-29T17:23:39;5.70;;;3.03;;
68987;SDS011;56038;46.080;11.116;2023-07-29T17:28:41;3.10;;;2.58;;
68987;SDS011;56038;46.080;11.116;2023-07-29T17:33:44;3.90;;;2.72;;
68987;SDS011;56038;46.080;11.116;2023-07-29T17:38:46;3.83;;;2.77;;
68987;SDS011;56038;46.080;11.116;2023-07-29T17:43:48;3.47;;;3.17;;
68987;SDS011;56038;46.080;11.116;2023-07-29T17:48:51;3.08;;;2.58;;
68987;SDS011;56038;46.080;11.116;2023-07-29T17:53:53;6.43;;;3.13;;
68987;SDS011;56038;46.080;11.116;2023-07-29T17:58:55;5.07;;;2.45;;
68987;SDS011;56038;46.080;11.116;2023-07-29T18:03:58;3.03;;;2.65;;
68987;SDS011;56038;46.080;11.116;2023-07-29T18:09:00;3.87;;;2.73;;
68987;SDS011;56038;46.080;11.116;2023-07-29T18:14:02;4.30;;;2.40;;
68987;SDS011;56038;46.080;11.116;2023-07-29T18:19:05;3.20;;;2.60;;
68987;SDS011;56038;46.080;11.116;2023-07-29T18:24:07;4.33;;;2.90;;
68987;SDS011;56038;46.080;11.116;2023-07-29T18:29:09;4.88;;;3.10;;
68987;SDS011;56038;46.080;11.116;2023-07-29T18:34:12;5.95;;;2.97;;
68987;SDS011;56038;46.080;11.116;2023-07-29T18:39:14;6.43;;;3.40;;
68987;SDS011;56038;46.080;11.116;2023-07-29T18:44:16;5.22;;;3.60;;
68987;SDS011;56038;46.080;11.116;2023-07-29T18:49:19;3.15;;;2.85;;
68987;SDS011;56038;46.080;11.116;2023-07-29T18:54:23;6.00;;;3.15;;
68987;SDS011;56038;46.080;11.116;2023-07-29T18:59:25;2.95;;;2.65;;
68987;SDS011;56038;46.080;11.116;2023-07-29T19:04:28;4.30;;;2.58;;
68987;SDS011;56038;46.080;11.116;2023-07-29T19:09:30;2.25;;;2.10;;
68987;SDS011;56038;46.080;11.116;2023-07-29T19:14:32;3.35;;;2.78;;
68987;SDS011;56038;46.080;11.116;2023-07-29T19:19:35;3.38;;;2.08;;
68987;SDS011;56038;46.080;11.116;2023-07-29T19:24:37;1.95;;;1.85;;
68987;SDS011;56038;46.080;11.116;2023-07-29T19:29:41;2.87;;;2.47;;
68987;SDS011;56038;46.080;11.116;2023-07-29T19:34:45;2.13;;;1.92;;
68987;SDS011;56038;46.080;11.116;2023-07-29T19:39:52;1.65;;;1.55;;
68987;SDS011;56038;46.080;11.116;2023-07-29T19:44:54;4.22;;;2.55;;
68987;SDS011;56038;46.080;11.116;2023-07-29T19:49:57;2.05;;;1.52;;
68987;SDS011;56038;46.080;11.116;2023-07-29T19:54:59;4.07;;;1.70;;
68987;SDS011;56038;46.080;11.116;2023-07-29T20:00:00;1.77;;;1.52;;
68987;SDS011;56038;46.080;11.116;2023-07-29T20:05:05;1.70;;;1.55;;
68987;SDS011;56038;46.080;11.116;2023-07-29T20:10:08;1.35;;;1.25;;
68987;SDS011;56038;46.080;11.116;2023-07-29T20:15:10;2.30;;;1.88;;
68987;SDS011;56038;46.080;11.116;2023-07-29T20:20:13;2.65;;;1.38;;
68987;SDS011;56038;46.080;11.116;2023-07-29T20:25:15;1.70;;;1.48;;
68987;SDS011;56038;46.080;11.116;2023-07-29T20:30:17;1.40;;;1.15;;
68987;SDS011;56038;46.080;11.116;2023-07-29T20:35:20;1.42;;;1.25;;
68987;SDS011;56038;46.080;11.116;2023-07-29T20:40:22;2.08;;;1.45;;
68987;SDS011;56038;46.080;11.116;2023-07-29T20:45:24;1.75;;;1.42;;
68987;SDS011;56038;46.080;11.116;2023-07-29T20:50:27;3.22;;;1.10;;
68987;SDS011;56038;46.080;11.116;2023-07-29T20:55:29;1.15;;;1.05;;
68987;SDS011;56038;46.080;11.116;2023-07-29T21:00:31;4.72;;;3.78;;
68987;SDS011;56038;46.080;11.116;2023-07-29T21:05:35;1.98;;;1.63;;
68987;SDS011;56038;46.080;11.116;2023-07-29T21:10:37;1.88;;;1.10;;
68987;SDS011;56038;46.080;11.116;2023-07-29T21:15:39;2.15;;;1.50;;
68987;SDS011;56038;46.080;11.116;2023-07-29T21:20:42;1.27;;;1.10;;
68987;SDS011;56038;46.080;11.116;2023-07-29T21:25:45;1.97;;;1.20;;
68987;SDS011;56038;46.080;11.116;2023-07-29T21:30:48;2.92;;;1.40;;
68987;SDS011;56038;46.080;11.116;2023-07-29T21:35:52;1.27;;;1.13;;
68987;SDS011;56038;46.080;11.116;2023-07-29T21:40:54;1.52;;;1.20;;
68987;SDS011;56038;46.080;11.116;2023-07-29T21:45:55;1.73;;;0.90;;
68987;SDS011;56038;46.080;11.116;2023-07-29T21:50:59;3.08;;;1.90;;
68987;SDS011;56038;46.080;11.116;2023-07-29T21:56:01;1.30;;;1.20;;
68987;SDS011;56038;46.080;11.116;2023-07-29T22:01:02;2.42;;;1.17;;
68987;SDS011;56038;46.080;11.116;2023-07-29T22:06:06;3.20;;;1.85;;
68987;SDS011;56038;46.080;11.116;2023-07-29T22:11:08;1.67;;;1.23;;
68987;SDS011;56038;46.080;11.116;2023-07-29T22:16:11;2.17;;;1.13;;
68987;SDS011;56038;46.080;11.116;2023-07-29T22:21:15;2.13;;;1.40;;
68987;SDS011;56038;46.080;11.116;2023-07-29T22:26:17;1.27;;;1.17;;
68987;SDS011;56038;46.080;11.116;2023-07-29T22:31:19;1.77;;;1.17;;
68987;SDS011;56038;46.080;11.116;2023-07-29T22:36:22;1.40;;;1.30;;
68987;SDS011;56038;46.080;11.116;2023-07-29T22:41:24;1.58;;;1.45;;
68987;SDS011;56038;46.080;11.116;2023-07-29T22:46:26;1.63;;;1.20;;
68987;SDS011;56038;46.080;11.116;2023-07-29T22:51:31;2.75;;;1.50;;
68987;SDS011;56038;46.080;11.116;2023-07-29T22:56:34;1.30;;;1.20;;
68987;SDS011;56038;46.080;11.116;2023-07-29T23:01:36;1.50;;;1.40;;
68987;SDS011;56038;46.080;11.116;2023-07-29T23:06:39;2.13;;;1.55;;
68987;SDS011;56038;46.080;11.116;2023-07-29T23:11:41;1.80;;;1.60;;
68987;SDS011;56038;46.080;11.116;2023-07-29T23:16:43;1.67;;;1.40;;
68987;SDS011;56038;46.080;11.116;2023-07-29T23:21:46;1.30;;;1.20;;
68987;SDS011;56038;46.080;11.116;2023-07-29T23:26:48;3.40;;;1.38;;
68987;SDS011;56038;46.080;11.116;2023-07-29T23:31:50;1.88;;;1.52;;
68987;SDS011;56038;46.080;11.116;2023-07-29T23:36:56;1.95;;;1.80;;
68987;SDS011;56038;46.080;11.116;2023-07-29T23:41:58;1.40;;;1.30;;
68987;SDS011;56038;46.080;11.116;2023-07-29T23:46:59;2.65;;;1.48;;
68987;SDS011;56038;46.080;11.116;2023-07-29T23:52:04;1.85;;;1.50;;
68987;SDS011;56038;46.080;11.116;2023-07-29T23:57:07;1.65;;;1.42;;
